createdAt,value
2023-04-15T00:00:22.908Z,11.50
2023-04-15T00:03:23.593Z,11.00
2023-04-15T00:06:06.475Z,10.20
2023-04-15T00:08:47.732Z,12.70
2023-04-15T00:11:49.475Z,9.40
2023-04-15T00:14:28.459Z,10.70
2023-04-15T00:17:26.230Z,14.80
2023-04-15T00:20:02.100Z,12.30
2023-04-15T00:22:41.947Z,13.00
2023-04-15T00:25:47.998Z,13.10
2023-04-15T00:28:40.253Z,11.40
2023-04-15T00:31:30.280Z,10.90
2023-04-15T00:34:23.158Z,18.10
2023-04-15T00:36:56.897Z,13.40
2023-04-15T00:39:33.364Z,12.30
2023-04-15T00:42:12.374Z,11.40
2023-04-15T00:44:48.658Z,11.40
2023-04-15T00:47:29.241Z,14.50
2023-04-15T00:50:15.390Z,12.80
2023-04-15T00:52:49.153Z,11.30
2023-04-15T00:55:22.370Z,10.90
2023-04-15T00:58:02.605Z,11.80
2023-04-15T01:00:49.504Z,14.80
2023-04-15T01:03:25.569Z,11.50
2023-04-15T01:06:03.729Z,12.40
2023-04-15T01:08:38.172Z,12.50
2023-04-15T01:11:14.440Z,11.90
2023-04-15T01:13:51.243Z,13.30
2023-04-15T01:16:29.233Z,13.40
2023-04-15T01:19:03.529Z,17.40
2023-04-15T01:21:52.842Z,15.60
2023-04-15T01:24:58.591Z,13.50
2023-04-15T01:27:48.186Z,12.90
2023-04-15T01:30:26.598Z,13.10
2023-04-15T01:33:03.435Z,13.10
2023-04-15T01:35:41.092Z,14.00
2023-04-15T01:38:31.653Z,11.10
2023-04-15T01:41:07.918Z,14.50
2023-04-15T01:43:43.311Z,13.00
2023-04-15T01:46:18.676Z,11.90
2023-04-15T01:48:56.344Z,12.50
2023-04-15T01:51:37.924Z,13.40
2023-04-15T01:54:12.746Z,12.30
2023-04-15T01:56:49.654Z,15.40
2023-04-15T01:59:28.544Z,13.70
2023-04-15T02:02:07.002Z,12.50
2023-04-15T02:04:51.070Z,12.50
2023-04-15T02:07:32.760Z,14.00
2023-04-15T02:10:12.106Z,13.30
2023-04-15T02:12:48.835Z,12.50
2023-04-15T02:15:31.698Z,15.60
2023-04-15T02:18:13.799Z,14.80
2023-04-15T02:20:57.854Z,14.20
2023-04-15T02:23:35.421Z,18.40
2023-04-15T02:26:21.590Z,14.70
2023-04-15T02:29:01.305Z,18.80
2023-04-15T02:31:42.913Z,17.00
2023-04-15T02:34:20.657Z,14.30
2023-04-15T02:36:58.562Z,16.00
2023-04-15T02:39:40.271Z,14.60
2023-04-15T02:42:13.948Z,13.60
2023-04-15T02:44:57.236Z,13.60
2023-04-15T02:47:40.762Z,13.80
2023-04-15T02:50:24.440Z,13.70
2023-04-15T02:53:12.250Z,12.40
2023-04-15T02:55:54.245Z,14.50
2023-04-15T02:58:35.776Z,13.10
2023-04-15T03:01:26.258Z,12.30
2023-04-15T03:04:11.468Z,12.00
2023-04-15T03:06:47.469Z,13.90
2023-04-15T03:09:32.716Z,11.70
2023-04-15T03:12:28.280Z,13.10
2023-04-15T03:17:53.000Z,13.20
2023-04-15T03:20:51.167Z,11.20
2023-04-15T03:23:23.167Z,11.80
2023-04-15T03:26:07.760Z,10.80
2023-04-15T03:28:46.813Z,11.60
2023-04-15T03:31:20.783Z,12.00
2023-04-15T03:33:55.518Z,10.70
2023-04-15T03:36:38.973Z,10.50
2023-04-15T03:39:17.626Z,10.40
2023-04-15T03:41:53.621Z,13.20
2023-04-15T03:44:33.065Z,11.40
2023-04-15T03:47:07.960Z,11.90
2023-04-15T03:49:49.869Z,11.50
2023-04-15T03:52:29.833Z,13.90
2023-04-15T03:55:05.532Z,11.80
2023-04-15T03:57:50.088Z,14.40
2023-04-15T04:00:25.132Z,12.90
2023-04-15T04:03:04.913Z,15.50
2023-04-15T04:05:51.424Z,13.10
2023-04-15T04:08:47.128Z,12.30
2023-04-15T04:11:20.869Z,11.30
2023-04-15T04:14:00.529Z,12.30
2023-04-15T04:16:36.522Z,12.40
2023-04-15T04:19:09.696Z,12.60
2023-04-15T04:21:50.748Z,10.60
2023-04-15T04:24:36.016Z,11.50
2023-04-15T04:27:19.815Z,11.00
2023-04-15T04:30:08.617Z,12.00
2023-04-15T04:32:46.574Z,10.50
2023-04-15T04:35:27.408Z,10.60
2023-04-15T04:38:07.247Z,11.50
2023-04-15T04:40:57.270Z,12.50
2023-04-15T04:43:37.182Z,10.90
2023-04-15T04:46:13.606Z,11.40
2023-04-15T04:49:04.761Z,12.70
2023-04-15T04:51:46.432Z,10.60
2023-04-15T04:54:36.333Z,10.90
2023-04-15T04:57:22.142Z,11.60
2023-04-15T05:00:11.478Z,12.00
2023-04-15T05:02:55.611Z,10.10
2023-04-15T05:05:44.389Z,12.40
2023-04-15T05:08:51.659Z,13.80
2023-04-15T05:11:40.494Z,12.80
2023-04-15T05:17:15.290Z,13.00
2023-04-15T05:19:49.471Z,13.30
2023-04-15T05:22:23.789Z,16.50
2023-04-15T05:25:04.670Z,19.30
2023-04-15T05:27:38.143Z,23.00
2023-04-15T05:30:22.290Z,23.90
2023-04-15T05:32:59.658Z,23.70
2023-04-15T05:35:57.764Z,23.60
2023-04-15T05:38:50.852Z,22.00
2023-04-15T05:41:36.851Z,21.90
2023-04-15T05:44:58.684Z,23.60
2023-04-15T05:47:34.288Z,24.20
2023-04-15T05:50:26.874Z,21.80
2023-04-15T05:53:41.424Z,25.70
2023-04-15T05:56:50.757Z,24.80
2023-04-15T05:59:29.275Z,24.40
2023-04-15T06:02:46.153Z,22.70
2023-04-15T06:05:51.696Z,20.00
2023-04-15T06:08:47.801Z,20.90
2023-04-15T06:11:34.397Z,21.60
2023-04-15T06:17:23.051Z,25.40
2023-04-15T06:20:23.590Z,24.90
2023-04-15T06:22:56.139Z,26.20
2023-04-15T06:25:50.169Z,28.30
2023-04-15T06:28:53.153Z,27.40
2023-04-15T06:31:41.664Z,26.10
2023-04-15T06:34:30.836Z,23.10
2023-04-15T06:37:23.825Z,25.00
2023-04-15T06:40:01.600Z,22.20
2023-04-15T06:42:40.887Z,21.10
2023-04-15T06:45:22.920Z,20.80
2023-04-15T06:48:06.706Z,22.40
2023-04-15T06:55:24.926Z,29.70
2023-04-15T06:58:23.538Z,18.60
2023-04-15T07:01:03.974Z,17.00
2023-04-15T07:03:40.503Z,15.00
2023-04-15T07:06:15.572Z,14.30
2023-04-15T07:08:51.634Z,12.20
2023-04-15T07:11:32.088Z,15.40
2023-04-15T07:14:12.941Z,11.00
2023-04-15T07:19:48.967Z,15.50
2023-04-15T07:25:26.806Z,14.10
2023-04-15T07:28:00.526Z,12.80
2023-04-15T07:30:33.344Z,22.10
2023-04-15T07:33:05.915Z,28.20
2023-04-15T07:35:38.485Z,31.40
2023-04-15T07:38:14.055Z,30.60
2023-04-15T07:40:51.508Z,24.10
2023-04-15T07:43:33.237Z,20.60
2023-04-15T07:46:33.931Z,19.10
2023-04-15T07:49:12.488Z,21.70
2023-04-15T07:51:50.966Z,18.80
2023-04-15T07:54:48.310Z,40.80
2023-04-15T07:57:24.992Z,22.20
2023-04-15T08:00:07.563Z,19.00
2023-04-15T08:02:55.032Z,23.60
2023-04-15T08:06:00.109Z,29.50
2023-04-15T08:08:34.122Z,27.90
2023-04-15T08:11:12.564Z,14.00
2023-04-15T08:14:15.207Z,17.10
2023-04-15T08:16:53.362Z,17.50
2023-04-15T08:19:46.100Z,19.90
2023-04-15T08:22:27.723Z,27.70
2023-04-15T08:25:13.872Z,32.90
2023-04-15T08:28:03.664Z,29.60
2023-04-15T08:30:45.799Z,16.80
2023-04-15T08:33:33.728Z,9.40
2023-04-15T08:36:20.920Z,18.80
2023-04-15T08:39:02.934Z,18.20
2023-04-15T08:42:09.979Z,27.50
2023-04-15T08:44:52.183Z,34.40
2023-04-15T08:47:47.035Z,22.00
2023-04-15T08:50:41.657Z,22.00
2023-04-15T08:56:43.792Z,22.10
2023-04-15T08:59:43.353Z,23.20
2023-04-15T09:02:39.961Z,25.50
2023-04-15T09:05:35.146Z,21.80
2023-04-15T09:08:13.332Z,19.00
2023-04-15T09:10:55.360Z,17.40
2023-04-15T09:14:20.298Z,21.80
2023-04-15T09:17:10.290Z,18.60
2023-04-15T09:19:44.520Z,20.10
2023-04-15T09:22:33.825Z,18.90
2023-04-15T09:25:25.561Z,17.40
2023-04-15T09:28:02.884Z,21.30
2023-04-15T09:30:41.002Z,26.50
2023-04-15T09:33:18.695Z,26.70
2023-04-15T09:36:13.774Z,23.90
2023-04-15T09:39:03.958Z,20.00
2023-04-15T09:42:21.299Z,17.70
2023-04-15T09:44:56.095Z,21.20
2023-04-15T09:47:46.643Z,21.50
2023-04-15T09:51:04.429Z,17.90
2023-04-15T09:53:49.691Z,19.90
2023-04-15T09:56:29.911Z,27.70
2023-04-15T09:59:37.757Z,19.50
2023-04-15T10:02:38.985Z,17.40
2023-04-15T10:08:44.261Z,22.40
2023-04-15T10:11:28.310Z,18.20
2023-04-15T10:14:33.133Z,16.50
2023-04-15T10:17:31.787Z,14.50
2023-04-15T10:20:38.459Z,17.00
2023-04-15T10:23:37.186Z,21.40
2023-04-15T10:26:27.221Z,20.00
2023-04-15T10:29:22.199Z,28.40
2023-04-15T10:32:17.259Z,23.90
2023-04-15T10:35:10.434Z,22.20
2023-04-15T10:37:49.239Z,19.50
2023-04-15T10:40:36.857Z,19.60
2023-04-15T10:43:48.257Z,22.00
2023-04-15T10:46:49.624Z,20.00
2023-04-15T10:49:50.504Z,19.60
2023-04-15T10:52:30.744Z,23.60
2023-04-15T10:55:52.822Z,18.00
2023-04-15T10:59:31.411Z,20.50
2023-04-15T11:02:12.636Z,24.90
2023-04-15T11:04:58.284Z,19.40
2023-04-15T11:10:58.482Z,17.00
2023-04-15T11:14:07.878Z,15.90
2023-04-15T11:17:01.321Z,17.80
2023-04-15T11:19:47.670Z,17.30
2023-04-15T11:22:28.476Z,15.70
2023-04-15T11:25:11.349Z,14.90
2023-04-15T11:28:01.500Z,14.30
2023-04-15T11:31:09.629Z,17.20
2023-04-15T11:34:11.444Z,19.10
2023-04-15T11:37:22.101Z,18.70
2023-04-15T11:40:17.699Z,19.90
2023-04-15T11:43:48.882Z,19.20
2023-04-15T11:49:48.142Z,18.50
2023-04-15T11:52:22.847Z,16.50
2023-04-15T11:55:14.576Z,18.60
2023-04-15T11:57:52.760Z,16.00
2023-04-15T12:04:07.924Z,18.40
2023-04-15T12:07:01.791Z,18.20
2023-04-15T12:09:40.268Z,16.90
2023-04-15T12:12:41.635Z,15.10
2023-04-15T12:15:21.938Z,15.20
2023-04-15T12:17:57.048Z,18.00
2023-04-15T12:20:44.940Z,18.80
2023-04-15T12:23:22.775Z,12.00
2023-04-15T12:25:53.399Z,10.10
2023-04-15T12:28:44.463Z,7.90
2023-04-15T12:38:07.036Z,8.40
2023-04-15T12:41:04.036Z,11.00
2023-04-15T12:43:42.614Z,7.10
2023-04-15T12:46:14.322Z,7.40
2023-04-15T12:49:08.853Z,10.00
2023-04-15T12:52:16.704Z,8.20
2023-04-15T12:55:05.287Z,7.80
2023-04-15T12:58:05.166Z,7.80
2023-04-15T13:02:06.051Z,8.10
2023-04-15T13:05:19.389Z,7.40
2023-04-15T13:08:12.148Z,8.00
2023-04-15T13:11:21.076Z,8.70
2023-04-15T13:14:01.220Z,11.20
2023-04-15T13:16:51.528Z,7.80
2023-04-15T13:19:40.060Z,9.00
2023-04-15T13:22:23.156Z,6.80
2023-04-15T13:24:55.585Z,5.90
2023-04-15T13:27:34.081Z,7.40
2023-04-15T13:33:18.810Z,6.40
2023-04-15T13:36:00.768Z,7.50
2023-04-15T13:38:52.784Z,7.20
2023-04-15T13:41:35.508Z,10.90
2023-04-15T13:44:17.371Z,10.50
2023-04-15T13:47:04.237Z,31.10
2023-04-15T13:49:57.097Z,9.10
2023-04-15T13:52:31.849Z,6.70
2023-04-15T13:55:20.419Z,6.70
2023-04-15T13:58:02.416Z,8.90
2023-04-15T14:00:36.012Z,7.50
2023-04-15T14:03:53.402Z,7.40
2023-04-15T14:06:56.080Z,8.70
2023-04-15T14:09:59.332Z,7.70
2023-04-15T14:12:59.964Z,6.00
2023-04-15T14:15:48.646Z,6.30
2023-04-15T14:18:45.813Z,7.10
2023-04-15T14:21:24.376Z,5.70
2023-04-15T14:24:02.184Z,71.40
2023-04-15T14:26:46.278Z,12.30
2023-04-15T14:29:32.386Z,6.40
2023-04-15T14:32:17.356Z,10.10
2023-04-15T14:35:31.980Z,13.00
2023-04-15T14:38:23.024Z,7.00
2023-04-15T14:40:58.450Z,5.50
2023-04-15T14:43:40.011Z,3.70
2023-04-15T14:46:42.143Z,5.20
2023-04-15T14:49:24.310Z,5.70
2023-04-15T14:52:10.547Z,7.00
2023-04-15T14:54:50.189Z,4.60
2023-04-15T14:57:41.869Z,8.40
2023-04-15T15:03:44.173Z,5.30
2023-04-15T15:06:27.938Z,7.40
2023-04-15T15:09:10.936Z,6.80
2023-04-15T15:11:53.742Z,16.40
2023-04-15T15:14:35.642Z,10.70
2023-04-15T15:17:26.072Z,9.80
2023-04-15T15:20:20.382Z,7.80
2023-04-15T15:23:06.210Z,10.30
2023-04-15T15:26:11.517Z,7.30
2023-04-15T15:28:54.071Z,5.90
2023-04-15T15:31:36.110Z,6.80
2023-04-15T15:34:10.885Z,9.70
2023-04-15T15:36:46.985Z,8.50
2023-04-15T15:39:30.810Z,6.70
2023-04-15T15:42:08.326Z,8.90
2023-04-15T15:44:47.412Z,9.60
2023-04-15T15:47:32.268Z,9.10
2023-04-15T15:50:21.706Z,7.00
2023-04-15T15:53:13.025Z,9.30
2023-04-15T15:55:59.844Z,10.20
2023-04-15T15:58:37.793Z,10.00
2023-04-15T16:01:21.294Z,11.30
2023-04-15T16:03:54.503Z,9.10
2023-04-15T16:06:27.801Z,8.80
2023-04-15T16:09:03.035Z,7.30
2023-04-15T16:11:44.617Z,7.60
2023-04-15T16:14:34.413Z,9.20
2023-04-15T16:17:45.556Z,10.70
2023-04-15T16:21:02.649Z,10.90
2023-04-15T16:23:40.848Z,9.60
2023-04-15T16:26:16.697Z,18.00
2023-04-15T16:28:49.536Z,8.20
2023-04-15T16:31:27.141Z,13.70
2023-04-15T16:34:17.811Z,11.60
2023-04-15T16:36:57.467Z,17.40
2023-04-15T16:39:27.572Z,11.60
2023-04-15T16:42:00.612Z,9.30
2023-04-15T16:44:46.197Z,10.70
2023-04-15T16:47:28.865Z,13.40
2023-04-15T16:50:02.078Z,12.30
2023-04-15T16:52:34.006Z,18.00
2023-04-15T16:55:05.777Z,12.30
2023-04-15T16:58:03.178Z,11.40
2023-04-15T17:00:45.830Z,11.40
2023-04-15T17:03:22.222Z,14.60
2023-04-15T17:05:57.017Z,14.00
2023-04-15T17:08:29.573Z,14.30
2023-04-15T17:11:00.682Z,14.80
2023-04-15T17:13:46.525Z,14.30
2023-04-15T17:16:26.793Z,18.50
2023-04-15T17:21:58.431Z,20.40
2023-04-15T17:24:41.455Z,21.70
2023-04-15T17:27:27.865Z,21.60
2023-04-15T17:30:09.242Z,20.30
2023-04-15T17:35:21.933Z,24.70
2023-04-15T17:38:01.975Z,20.20
2023-04-15T17:40:39.999Z,26.80
2023-04-15T17:43:14.070Z,26.80
2023-04-15T17:45:58.809Z,19.70
2023-04-15T17:48:40.626Z,25.90
2023-04-15T17:51:29.697Z,28.30
2023-04-15T17:54:16.818Z,22.70
2023-04-15T17:57:32.768Z,24.20
2023-04-15T18:00:29.493Z,22.70
2023-04-15T18:03:25.966Z,24.30
2023-04-15T18:25:04.970Z,31.30
2023-04-15T18:28:01.280Z,39.20
2023-04-15T18:31:32.805Z,49.50
2023-04-15T18:34:25.565Z,45.90
2023-04-15T18:37:33.663Z,45.40
2023-04-15T18:40:51.029Z,46.30
2023-04-15T19:02:34.287Z,50.00
2023-04-15T19:05:32.652Z,65.80
2023-04-15T19:08:30.525Z,90.00
2023-04-15T19:11:38.536Z,66.00
2023-04-15T19:14:25.626Z,84.30
2023-04-15T19:17:05.164Z,85.90
2023-04-15T19:20:08.991Z,92.80
2023-04-15T19:23:33.649Z,88.60
2023-04-15T19:26:25.284Z,93.40
2023-04-15T19:32:24.938Z,86.80
2023-04-15T19:35:26.434Z,89.50
2023-04-15T19:38:16.373Z,89.90
2023-04-15T19:41:17.267Z,81.80
2023-04-15T19:44:22.077Z,84.50
2023-04-15T19:47:28.628Z,74.30
2023-04-15T19:50:16.338Z,80.60
2023-04-15T19:53:23.817Z,73.80
2023-04-15T19:56:28.822Z,70.10
2023-04-15T19:59:51.871Z,68.10
2023-04-15T20:03:11.585Z,73.00
2023-04-15T20:06:02.604Z,108.60
2023-04-15T20:08:45.665Z,93.00
2023-04-15T20:12:46.851Z,83.30
2023-04-15T20:14:41.951Z,75.40
2023-04-15T20:17:34.721Z,80.70
2023-04-15T20:20:29.707Z,92.30
2023-04-15T20:23:18.285Z,85.60
2023-04-15T20:26:10.431Z,81.20
2023-04-15T20:29:00.402Z,77.60
2023-04-15T20:31:48.957Z,78.10
2023-04-15T20:34:42.944Z,83.90
2023-04-15T20:37:39.442Z,79.80
2023-04-15T20:40:27.784Z,80.20
2023-04-15T20:43:27.899Z,84.50
2023-04-15T20:46:34.381Z,83.80
2023-04-15T20:49:56.146Z,85.90
2023-04-15T20:52:39.275Z,91.00
2023-04-15T20:55:28.332Z,101.40
2023-04-15T20:58:29.338Z,94.80
2023-04-15T21:01:05.590Z,99.70
2023-04-15T21:07:00.384Z,95.80
2023-04-15T21:13:29.749Z,97.90
2023-04-15T21:16:39.084Z,99.00
2023-04-15T21:19:38.048Z,111.10
2023-04-15T21:26:15.048Z,112.30
2023-04-15T21:29:47.327Z,98.00
2023-04-15T21:42:52.908Z,127.90
2023-04-15T21:46:21.440Z,118.30
2023-04-15T21:49:15.492Z,108.90
2023-04-15T21:52:33.425Z,118.60
2023-04-15T21:55:38.635Z,114.80
2023-04-15T21:58:50.172Z,102.50
2023-04-15T22:05:58.566Z,115.70
2023-04-15T22:11:58.902Z,110.80
2023-04-15T22:15:00.414Z,106.50
2023-04-15T22:21:06.001Z,96.40
2023-04-15T22:26:56.242Z,93.10
2023-04-15T22:30:15.014Z,108.10
2023-04-15T22:33:08.394Z,102.90
2023-04-15T22:36:09.278Z,107.20
2023-04-15T22:39:24.919Z,101.70
2023-04-15T22:45:45.731Z,96.00
2023-04-15T22:48:42.802Z,79.10
2023-04-15T22:51:39.788Z,68.60
2023-04-15T22:54:32.416Z,68.20
2023-04-15T22:57:28.843Z,58.60
2023-04-15T23:00:18.624Z,58.50
2023-04-15T23:02:56.486Z,58.00
2023-04-15T23:06:01.504Z,52.00
2023-04-15T23:08:50.647Z,51.10
2023-04-15T23:11:40.510Z,51.30
2023-04-15T23:14:37.309Z,59.40
2023-04-15T23:17:27.348Z,66.10
2023-04-15T23:20:10.733Z,71.00
2023-04-15T23:22:52.286Z,70.80
2023-04-15T23:25:38.342Z,67.90
2023-04-15T23:28:43.595Z,69.10
2023-04-15T23:31:16.493Z,74.30
2023-04-15T23:33:58.744Z,93.80
2023-04-15T23:36:59.678Z,97.60
2023-04-15T23:39:48.704Z,111.10
2023-04-15T23:42:29.523Z,98.00
2023-04-15T23:45:27.105Z,85.10
2023-04-15T23:48:11.476Z,128.80
2023-04-15T23:51:07.734Z,90.20
2023-04-15T23:56:55.021Z,104.00
2023-04-15T23:59:49.640Z,103.20
